• Join FlightAware (Why Join?)
  • Login
  • US Flag 
11:20PM EDT


 

Airport Tracker/Info


-or-


 

Live Flight TrackerFlight Track Log ✈ DAL6115 ✈ 08-Feb-2014 ✈ CYUL - KDTW

Flight Track Log - Related Links

Times and Time Zones

All times are in EST time to prevent confusion due to time zone crossing. See the DAL6115 flight status page for this flight to view local times or setup timezone preferences in your user account.

Time Position Orientation Groundspeed Altitude Reporting Facility
EST Latitude Longitude Course Direction KTS MPH feet Rate Location/Type
04:50PM 45.4558 -73.7422 207° Southwest 165 190 1,000  Level Boston Center
04:51PM 45.4192 -73.7817 217° Southwest 164 189 3,600 2,460 Climbing Boston Center
04:52PM 45.3661 -73.8106 201° Southwest 195 224 6,100 2,400 Climbing Boston Center
04:53PM 45.2310 -73.9053 209° Southwest  Level FlightAware Approximate
04:53PM 45.2833 -73.8500 199° South 240 276 8,900  Level Montreal Center
04:54PM 45.1519 -73.9630 207° Southwest  Level FlightAware Approximate
04:54PM 45.2000 -73.8833 196° South 260 299 11,000  Level Montreal Center
04:55PM 45.0712 -74.0206 207° Southwest  Level FlightAware Approximate
04:55PM 45.1333 -73.9000 190° South 290 334 12,900  Level Montreal Center
04:56PM 44.9905 -74.0782 207° Southwest  Level FlightAware Approximate
04:56PM 45.0500 -73.9500 203° Southwest 290 334 15,100  Level Montreal Center
04:57PM 45.0000 -74.0333 230° Southwest 280 322 17,300 1,920 Climbing Montreal Center
04:59PM 44.8981 -74.1778 225° Southwest 276 318 21,000 1,860 Climbing Boston Center
05:00PM 44.8275 -74.2636 221° Southwest 280 322 23,300 1,620 Climbing Boston Center
05:03PM 44.7061 -74.4103 221° Southwest 291 335 26,300 1,200 Climbing Boston Center
05:04PM 44.5833 -74.5333 216° Southwest 300 345 28,000 540 Climbing Montreal Center
05:06PM 44.5008 -74.6550 226° Southwest 327 376 28,000  Level Boston Center
05:07PM 44.4294 -74.7397 220° Southwest 336 387 28,000  Level Boston Center
05:08PM 44.3589 -74.8244 221° Southwest 336 387 28,000  Level Boston Center
05:09PM 44.2872 -74.9075 220° Southwest 336 387 28,000  Level Boston Center
05:10PM 44.2164 -74.9931 221° Southwest 337 388 28,000  Level Boston Center
05:11PM 44.1450 -75.0764 220° Southwest 336 387 28,000  Level Boston Center
05:12PM 44.0894 -75.1733 231° Southwest 338 389 28,000  Level Boston Center
05:13PM 44.0531 -75.2869 246° West 327 376 28,000  Level Boston Center
05:14PM 44.0103 -75.4239 247° West 325 374 28,000  Level Boston Center
05:15PM 43.9739 -75.5378 246° West 325 374 28,000  Level Boston Center
05:16PM 43.9375 -75.6522 246° West 326 375 28,000  Level Boston Center
05:17PM 43.9008 -75.7672 246° West 329 379 28,000  Level Boston Center
05:18PM 43.8642 -75.8825 246° West 330 380 28,000  Level Boston Center
05:19PM 43.8258 -75.9992 246° West 333 383 28,000  Level Boston Center
05:20PM 43.7881 -76.1189 246° West 341 392 28,000  Level Boston Center
05:21PM 43.7489 -76.2364 245° Southwest 340 391 28,000  Level Boston Center
05:22PM 43.7092 -76.3567 245° Southwest 344 396 28,000  Level Boston Center
05:23PM 43.6706 -76.4781 246° West 347 399 28,000  Level Boston Center
05:24PM 43.6222 -76.6208 245° Southwest 344 396 28,000  Level Boston Center
05:25PM 43.5833 -76.7417 246° West 346 398 28,000  Level Boston Center
05:26PM 43.5428 -76.8628 245° Southwest 348 400 28,000  Level Boston Center
05:27PM 43.5031 -76.9828 246° West 347 399 28,000  Level Boston Center
05:29PM 43.4294 -77.1981 245° Southwest 345 397 28,000  Level Cleveland Center
05:30PM 43.3906 -77.3169 246° West 344 396 28,000  Level Cleveland Center
05:31PM 43.3500 -77.4342 245° Southwest 343 395 28,000  Level Cleveland Center
05:32PM 43.3097 -77.5525 245° Southwest 343 395 28,000  Level Cleveland Center
05:33PM 43.2694 -77.6694 245° Southwest 342 394 28,000  Level Cleveland Center
05:34PM 43.2294 -77.7867 245° Southwest 343 395 28,000  Level Cleveland Center
05:35PM 43.1803 -77.9261 244° Southwest 342 394 28,000  Level Cleveland Center
05:36PM 43.1414 -78.0403 245° Southwest 336 387 28,000  Level Cleveland Center
05:37PM 43.1028 -78.1528 245° Southwest 330 380 28,000  Level Cleveland Center
05:38PM 43.0633 -78.2625 244° Southwest 326 375 28,000  Level Cleveland Center
05:39PM 43.0242 -78.3739 244° Southwest 325 374 28,000  Level Cleveland Center
05:41PM 42.9444 -78.6000 244° Southwest 336 387 28,000  Level Cleveland Center
05:42PM 42.9156 -78.7425 255° West 325 374 28,000  Level Cleveland Center
05:43PM 42.8975 -78.8647 259° West 330 380 28,000  Level Cleveland Center
05:44PM 42.8794 -78.9867 259° West 328 377 28,000  Level Cleveland Center
05:45PM 42.8619 -79.1092 259° West 330 380 28,000  Level Cleveland Center
05:46PM 42.8433 -79.2306 258° West 328 377 28,000  Level Cleveland Center
05:47PM 42.8272 -79.3533 260° West 331 381 28,000  Level Cleveland Center
05:48PM 42.8078 -79.4781 258° West 336 387 28,000  Level Cleveland Center
05:49PM 42.7894 -79.6017 259° West 335 386 28,000  Level Cleveland Center
05:50PM 42.7661 -79.7531 258° West 340 391 28,000  Level Cleveland Center
05:51PM 42.7486 -79.8797 259° West 342 394 28,000  Level Cleveland Center
05:52PM 42.7456 -79.9983 268° West 347 399 28,000  Level Cleveland Center
05:54PM 42.7306 -80.2833 265° West 346 398 28,000  Level Cleveland Center
05:55PM 42.7269 -80.4181 268° West 351 404 28,000  Level Cleveland Center
05:56PM 42.7203 -80.5461 266° West 344 396 28,000  Level Cleveland Center
05:57PM 42.7142 -80.6783 266° West 345 397 28,000  Level Cleveland Center
05:58PM 42.7100 -80.8133 268° West 352 405 28,000  Level Cleveland Center
05:59PM 42.6997 -80.9442 264° West 347 399 28,000  Level Cleveland Center
06:01PM 42.6700 -81.2025 261° West 345 397 28,000 -540 Level Cleveland Center
06:05PM 42.6239 -81.5933 259° West 350 403 25,400 -1,260 Descending Cleveland Center
06:06PM 42.6058 -81.7494 261° West 356 410 22,900 -2,220 Descending Cleveland Center
06:07PM 42.5906 -81.8783 261° West 357 411 20,900 -1,980 Descending Cleveland Center
06:09PM 42.5592 -82.1378 261° West 349 402 17,000 -1,980 Descending Cleveland Center
06:09PM 42.5461 -82.2344 260° West 336 387 15,500 -2,100 Descending Cleveland Center
06:10PM 42.5509 -82.1395 259° West  Level FlightAware Approximate
06:11PM 42.5278 -82.3794 260° West 317 365 13,000  Level Cleveland Center
06:11PM 42.5286 -82.3775 60° Northeast 323 372 13,000 -900 Level Cleveland Center
06:12PM 42.5125 -82.5103 261° West 309 356 12,000 -1,020 Descending Cleveland Center
06:12PM 42.5142 -82.4922 83° East 314 361 12,000 -900 Level Cleveland Center
06:14PM 42.4506 -82.7058 248° West 254 292 10,200 -900 Descending Cleveland Center
06:14PM 42.4497 -82.7094 253° West 279 321 10,200 -1,440 Level Cleveland Center
06:16PM 42.4325 -82.8661 262° West 235 270 7,200 -1,440 Descending Cleveland Center
06:17PM 42.4617 -82.9253 304° West 232 267 6,200 -1,080 Descending Cleveland Center
06:17PM 42.4683 -82.9381 305° West 234 269 6,100 -120 Descending Cleveland Center
06:18PM 42.5069 -82.9936 313° West 182 209 6,100 -60 Level Cleveland Center
06:19PM 42.5364 -83.0439 308° West 177 204 6,000 -60 Descending Cleveland Center
06:20PM 42.5328 -83.0961 265° West 166 191 6,000 60 Level Cleveland Center
06:20PM 42.5303 -83.0978 206° Southwest 178 205 6,100  Climbing Cleveland Center
06:21PM 42.4903 -83.1328 213° Southwest 157 181 6,000 -120 Descending Cleveland Center
06:21PM 42.4844 -83.1378 212° Southwest 167 192 6,000 60 Level Cleveland Center
06:22PM 42.4567 -83.1592 210° Southwest 153 176 6,100  Climbing Cleveland Center
06:22PM 42.4472 -83.1653 206° Southwest 157 181 6,000 -480 Descending Cleveland Center
06:23PM 42.4144 -83.1903 209° Southwest 146 168 5,600 -540 Descending Cleveland Center
06:23PM 42.4108 -83.1931 210° Southwest 153 176 5,500 -840 Descending Cleveland Center
06:24PM 42.3750 -83.2192 208° Southwest 147 169 4,600 -1,020 Descending Cleveland Center
06:25PM 42.3411 -83.2450 209° Southwest 161 185 3,700 -1,080 Descending Cleveland Center
06:25PM 42.3353 -83.2486 205° Southwest 157 181 3,500 -900 Descending Cleveland Center
06:26PM 42.3033 -83.2736 210° Southwest 154 177 2,800 -900 Descending Cleveland Center
06:26PM 42.2967 -83.2778 205° Southwest 159 183 2,600 -840 Descending Cleveland Center
06:27PM 42.2703 -83.2972 209° Southwest 123 142 2,000 -840 Descending Cleveland Center
06:27PM 42.2653 -83.3019 215° Southwest 143 165 1,800 -720 Descending Cleveland Center
06:28PM 42.2367 -83.3236 209° Southwest 125 144 1,200 -540 Descending Cleveland Center
06:28PM 42.2328 -83.3244 189° South 130 150 1,300 -180 Climbing Cleveland Center
06:29PM 42.2050 -83.3453 209° Southwest 129 148 1,000 -300 Descending Cleveland Center